Etusivu
METAR-TAF:

METAR-TAF

Lentoasemat :

Ellington Field

Houston, Texas, Yhdysvallat

Leveyspiiri: 29-36N, Pituuspiiri: 095-10W, korkeus merenpinnasta: 10 m

Tämänhetkinen sää

Tämä raportti tehtiin 25 minuuttia sitten, kello 04.50 UTC
tyyntä
Lämpötila 12°C
Kosteus 67%
Ilmanpaine 1027 hPa
Näkyvyys: 16.1 km
selkeää

METAR: KEFD 290450Z 00000KT 10SM CLR 12/06 A3034

Aika: 23:15 (05:15 UTC)

Sääennuste

Tämä raportti tehtiin 1 tunti ja 15 minuuttia sitten, kello 04.00 UTC
Ennuste voimassa 29. päivästä klo 04 UTC - 01. päivään klo 10 UTC
Tuuli 6 kn eri suunnista
Näkyvyys 10 km tai enemmän
Muutamia pilviä 25000 ft:n korkeudessa
Tulossa
29. päivästä klo 20 UTC - 29. päivään klo 21 UTC
Tuuli 10 kn etelästä puuskistuen 15 kn:hen
Näkyvyys 10 km tai enemmän
Hajanaisia pilviä 3000 ft:n korkeudessa

TAF: KEFD 290400Z 2904/0110 VRB06KT 9999 FEW250 QNH3028INS BECMG 2920/2921 18010G15KT 9999 SCT030 QNH3004INS TX20/2921Z TN07/2913Z

Säähavainnot ja -ennusteet yli 4000 lentoasemalta (METAR- ja TAF-raportit).

Käytössä olevat sääasemat on merkitty karttaan keltaisilla ja punaisilla pisteillä.

Aseta hiiri pisteen päälle nähdäksesi sääaseman nimen.

Klikkaa sitten nähdäksesi säähavainnot ja -ennusteet.

Kartan vaihtaminen: klikkaa mustalla rastilla varustettuja vihreitä pisteitä, niin voit zoomata sisään; viivalla varustettua vihreää pistettä, niin voit zoomata ulos tai vihreitä nuolia, niin pääset viereisille kartoille.


METAR-TAF: